sensor_id;sensor_type;location;lat;lon;timestamp;P1;durP1;ratioP1;P2;durP2;ratioP2
37483;SDS011;23337;52.212;9.926;2023-03-13T00:01:39;14.50;;;4.90;;
37483;SDS011;23337;52.212;9.926;2023-03-13T00:04:06;20.23;;;4.47;;
37483;SDS011;23337;52.212;9.926;2023-03-13T00:06:33;14.73;;;4.20;;
37483;SDS011;23337;52.212;9.926;2023-03-13T00:09:00;17.27;;;4.53;;
37483;SDS011;23337;52.212;9.926;2023-03-13T00:11:26;14.30;;;3.70;;
37483;SDS011;23337;52.212;9.926;2023-03-13T00:13:55;23.93;;;4.03;;
37483;SDS011;23337;52.212;9.926;2023-03-13T00:16:22;15.90;;;4.10;;
37483;SDS011;23337;52.212;9.926;2023-03-13T00:18:48;18.93;;;4.73;;
37483;SDS011;23337;52.212;9.926;2023-03-13T00:21:15;12.37;;;3.67;;
37483;SDS011;23337;52.212;9.926;2023-03-13T00:23:41;13.03;;;3.30;;
37483;SDS011;23337;52.212;9.926;2023-03-13T00:26:08;17.13;;;3.47;;
37483;SDS011;23337;52.212;9.926;2023-03-13T00:28:35;16.90;;;4.03;;
37483;SDS011;23337;52.212;9.926;2023-03-13T00:31:18;20.07;;;3.83;;
37483;SDS011;23337;52.212;9.926;2023-03-13T00:33:46;19.87;;;4.00;;
37483;SDS011;23337;52.212;9.926;2023-03-13T00:36:13;13.40;;;3.93;;
37483;SDS011;23337;52.212;9.926;2023-03-13T00:38:39;12.83;;;3.97;;
37483;SDS011;23337;52.212;9.926;2023-03-13T00:41:09;14.60;;;4.07;;
37483;SDS011;23337;52.212;9.926;2023-03-13T00:43:39;15.50;;;3.47;;
37483;SDS011;23337;52.212;9.926;2023-03-13T00:46:05;20.83;;;4.40;;
37483;SDS011;23337;52.212;9.926;2023-03-13T00:48:31;15.17;;;3.53;;
37483;SDS011;23337;52.212;9.926;2023-03-13T00:50:58;16.47;;;4.63;;
37483;SDS011;23337;52.212;9.926;2023-03-13T00:53:24;14.53;;;3.23;;
37483;SDS011;23337;52.212;9.926;2023-03-13T00:55:57;13.80;;;3.53;;
37483;SDS011;23337;52.212;9.926;2023-03-13T00:58:24;17.33;;;3.20;;
37483;SDS011;23337;52.212;9.926;2023-03-13T01:00:50;15.07;;;3.57;;
37483;SDS011;23337;52.212;9.926;2023-03-13T01:03:16;15.07;;;3.57;;
37483;SDS011;23337;52.212;9.926;2023-03-13T01:05:42;14.43;;;4.10;;
37483;SDS011;23337;52.212;9.926;2023-03-13T01:08:08;15.80;;;3.83;;
37483;SDS011;23337;52.212;9.926;2023-03-13T01:10:34;16.07;;;3.57;;
37483;SDS011;23337;52.212;9.926;2023-03-13T01:13:00;16.50;;;4.23;;
37483;SDS011;23337;52.212;9.926;2023-03-13T01:15:28;14.87;;;3.87;;
37483;SDS011;23337;52.212;9.926;2023-03-13T01:17:54;22.10;;;4.40;;
37483;SDS011;23337;52.212;9.926;2023-03-13T01:20:20;14.53;;;3.93;;
37483;SDS011;23337;52.212;9.926;2023-03-13T01:22:46;12.00;;;3.47;;
37483;SDS011;23337;52.212;9.926;2023-03-13T01:25:12;15.30;;;4.13;;
37483;SDS011;23337;52.212;9.926;2023-03-13T01:27:38;11.40;;;3.53;;
37483;SDS011;23337;52.212;9.926;2023-03-13T01:30:04;20.53;;;4.80;;
37483;SDS011;23337;52.212;9.926;2023-03-13T01:32:32;15.40;;;3.67;;
37483;SDS011;23337;52.212;9.926;2023-03-13T01:34:58;13.60;;;4.00;;
37483;SDS011;23337;52.212;9.926;2023-03-13T01:37:24;16.80;;;4.43;;
37483;SDS011;23337;52.212;9.926;2023-03-13T01:39:49;16.63;;;3.63;;
37483;SDS011;23337;52.212;9.926;2023-03-13T01:42:15;13.07;;;3.67;;
37483;SDS011;23337;52.212;9.926;2023-03-13T01:44:48;12.97;;;3.17;;
37483;SDS011;23337;52.212;9.926;2023-03-13T01:47:15;17.90;;;3.80;;
37483;SDS011;23337;52.212;9.926;2023-03-13T01:49:41;12.93;;;3.97;;
37483;SDS011;23337;52.212;9.926;2023-03-13T01:59:36;13.50;;;4.53;;
37483;SDS011;23337;52.212;9.926;2023-03-13T02:02:04;17.37;;;3.47;;
37483;SDS011;23337;52.212;9.926;2023-03-13T02:04:38;16.47;;;4.90;;
37483;SDS011;23337;52.212;9.926;2023-03-13T02:07:08;10.73;;;3.50;;
37483;SDS011;23337;52.212;9.926;2023-03-13T02:09:35;15.00;;;3.47;;
37483;SDS011;23337;52.212;9.926;2023-03-13T02:12:02;12.23;;;3.30;;
37483;SDS011;23337;52.212;9.926;2023-03-13T02:14:30;14.90;;;3.67;;
37483;SDS011;23337;52.212;9.926;2023-03-13T02:16:58;14.53;;;4.37;;
37483;SDS011;23337;52.212;9.926;2023-03-13T02:19:37;16.37;;;3.40;;
37483;SDS011;23337;52.212;9.926;2023-03-13T02:24:55;15.73;;;3.20;;
37483;SDS011;23337;52.212;9.926;2023-03-13T02:27:16;10.03;;;3.43;;
37483;SDS011;23337;52.212;9.926;2023-03-13T02:29:42;19.93;;;3.77;;
37483;SDS011;23337;52.212;9.926;2023-03-13T02:32:08;13.50;;;4.17;;
37483;SDS011;23337;52.212;9.926;2023-03-13T02:34:35;12.27;;;4.23;;
37483;SDS011;23337;52.212;9.926;2023-03-13T02:37:02;8.80;;;3.07;;
37483;SDS011;23337;52.212;9.926;2023-03-13T02:39:29;12.63;;;4.43;;
37483;SDS011;23337;52.212;9.926;2023-03-13T02:41:56;15.07;;;3.47;;
37483;SDS011;23337;52.212;9.926;2023-03-13T02:44:22;11.20;;;3.60;;
37483;SDS011;23337;52.212;9.926;2023-03-13T02:46:49;19.67;;;4.33;;
37483;SDS011;23337;52.212;9.926;2023-03-13T02:49:20;15.23;;;3.77;;
37483;SDS011;23337;52.212;9.926;2023-03-13T02:51:46;11.97;;;3.50;;
37483;SDS011;23337;52.212;9.926;2023-03-13T02:54:15;14.23;;;4.10;;
37483;SDS011;23337;52.212;9.926;2023-03-13T02:56:43;10.83;;;3.37;;
37483;SDS011;23337;52.212;9.926;2023-03-13T02:59:10;14.07;;;4.03;;
37483;SDS011;23337;52.212;9.926;2023-03-13T03:01:36;11.30;;;3.60;;
37483;SDS011;23337;52.212;9.926;2023-03-13T03:04:02;12.07;;;3.30;;
37483;SDS011;23337;52.212;9.926;2023-03-13T03:06:28;9.90;;;3.63;;
37483;SDS011;23337;52.212;9.926;2023-03-13T03:08:54;17.77;;;3.77;;
37483;SDS011;23337;52.212;9.926;2023-03-13T03:11:20;24.23;;;4.17;;
37483;SDS011;23337;52.212;9.926;2023-03-13T03:13:46;13.13;;;3.87;;
37483;SDS011;23337;52.212;9.926;2023-03-13T03:16:12;21.83;;;4.33;;
37483;SDS011;23337;52.212;9.926;2023-03-13T03:18:45;11.33;;;3.17;;
37483;SDS011;23337;52.212;9.926;2023-03-13T03:21:11;17.37;;;4.50;;
37483;SDS011;23337;52.212;9.926;2023-03-13T03:23:37;16.40;;;3.47;;
37483;SDS011;23337;52.212;9.926;2023-03-13T03:26:04;9.40;;;2.80;;
37483;SDS011;23337;52.212;9.926;2023-03-13T03:28:30;10.93;;;4.20;;
37483;SDS011;23337;52.212;9.926;2023-03-13T03:30:56;15.83;;;3.47;;
37483;SDS011;23337;52.212;9.926;2023-03-13T03:33:22;13.97;;;3.60;;
37483;SDS011;23337;52.212;9.926;2023-03-13T03:35:48;13.50;;;2.87;;
37483;SDS011;23337;52.212;9.926;2023-03-13T03:38:15;17.93;;;3.87;;
37483;SDS011;23337;52.212;9.926;2023-03-13T03:40:41;15.00;;;3.30;;
37483;SDS011;23337;52.212;9.926;2023-03-13T03:43:07;14.10;;;3.47;;
37483;SDS011;23337;52.212;9.926;2023-03-13T03:45:33;9.77;;;2.87;;
37483;SDS011;23337;52.212;9.926;2023-03-13T03:47:59;12.50;;;3.73;;
37483;SDS011;23337;52.212;9.926;2023-03-13T03:50:25;16.67;;;3.50;;
37483;SDS011;23337;52.212;9.926;2023-03-13T03:52:51;15.40;;;3.17;;
37483;SDS011;23337;52.212;9.926;2023-03-13T03:55:18;10.63;;;2.70;;
37483;SDS011;23337;52.212;9.926;2023-03-13T03:57:44;11.50;;;3.43;;
37483;SDS011;23337;52.212;9.926;2023-03-13T04:00:10;14.57;;;2.80;;
37483;SDS011;23337;52.212;9.926;2023-03-13T04:02:38;14.40;;;3.37;;
37483;SDS011;23337;52.212;9.926;2023-03-13T04:05:04;16.43;;;3.20;;
37483;SDS011;23337;52.212;9.926;2023-03-13T04:07:30;16.33;;;3.67;;
37483;SDS011;23337;52.212;9.926;2023-03-13T04:09:56;10.20;;;3.17;;
37483;SDS011;23337;52.212;9.926;2023-03-13T04:12:22;14.73;;;2.87;;
37483;SDS011;23337;52.212;9.926;2023-03-13T04:14:48;12.60;;;3.10;;
37483;SDS011;23337;52.212;9.926;2023-03-13T04:17:14;13.30;;;2.70;;
37483;SDS011;23337;52.212;9.926;2023-03-13T04:19:40;11.20;;;3.20;;
37483;SDS011;23337;52.212;9.926;2023-03-13T04:22:06;17.13;;;3.43;;
37483;SDS011;23337;52.212;9.926;2023-03-13T04:24:32;13.57;;;4.17;;
37483;SDS011;23337;52.212;9.926;2023-03-13T04:26:58;17.20;;;3.53;;
37483;SDS011;23337;52.212;9.926;2023-03-13T04:29:25;11.63;;;3.37;;
37483;SDS011;23337;52.212;9.926;2023-03-13T04:31:51;12.67;;;3.60;;
37483;SDS011;23337;52.212;9.926;2023-03-13T04:34:17;14.57;;;3.13;;
37483;SDS011;23337;52.212;9.926;2023-03-13T04:36:43;15.27;;;3.37;;
37483;SDS011;23337;52.212;9.926;2023-03-13T04:39:09;11.13;;;3.20;;
37483;SDS011;23337;52.212;9.926;2023-03-13T04:41:35;19.17;;;6.10;;
37483;SDS011;23337;52.212;9.926;2023-03-13T04:44:01;17.83;;;3.80;;
37483;SDS011;23337;52.212;9.926;2023-03-13T04:46:27;14.20;;;2.87;;
37483;SDS011;23337;52.212;9.926;2023-03-13T04:48:53;14.97;;;3.33;;
37483;SDS011;23337;52.212;9.926;2023-03-13T04:51:19;14.63;;;3.30;;
37483;SDS011;23337;52.212;9.926;2023-03-13T04:53:45;17.07;;;3.80;;
37483;SDS011;23337;52.212;9.926;2023-03-13T04:56:11;10.77;;;3.97;;
37483;SDS011;23337;52.212;9.926;2023-03-13T04:58:39;11.00;;;3.07;;
37483;SDS011;23337;52.212;9.926;2023-03-13T05:01:05;12.33;;;2.57;;
37483;SDS011;23337;52.212;9.926;2023-03-13T05:03:31;14.73;;;2.63;;
37483;SDS011;23337;52.212;9.926;2023-03-13T05:05:57;12.70;;;3.77;;
37483;SDS011;23337;52.212;9.926;2023-03-13T05:08:22;11.50;;;3.13;;
37483;SDS011;23337;52.212;9.926;2023-03-13T05:10:48;14.67;;;4.93;;
37483;SDS011;23337;52.212;9.926;2023-03-13T05:13:14;9.90;;;2.53;;
37483;SDS011;23337;52.212;9.926;2023-03-13T05:15:40;7.03;;;2.20;;
37483;SDS011;23337;52.212;9.926;2023-03-13T05:18:06;9.67;;;2.57;;
37483;SDS011;23337;52.212;9.926;2023-03-13T05:20:32;11.90;;;2.67;;
37483;SDS011;23337;52.212;9.926;2023-03-13T05:22:58;9.53;;;2.97;;
37483;SDS011;23337;52.212;9.926;2023-03-13T05:25:24;6.83;;;2.30;;
37483;SDS011;23337;52.212;9.926;2023-03-13T05:27:50;8.50;;;2.00;;
37483;SDS011;23337;52.212;9.926;2023-03-13T05:30:16;9.73;;;1.90;;
37483;SDS011;23337;52.212;9.926;2023-03-13T05:32:43;11.20;;;2.90;;
37483;SDS011;23337;52.212;9.926;2023-03-13T05:35:09;7.37;;;2.27;;
37483;SDS011;23337;52.212;9.926;2023-03-13T05:37:35;8.17;;;1.90;;
37483;SDS011;23337;52.212;9.926;2023-03-13T05:40:01;7.97;;;2.37;;
37483;SDS011;23337;52.212;9.926;2023-03-13T05:42:28;7.77;;;2.43;;
37483;SDS011;23337;52.212;9.926;2023-03-13T05:44:54;9.03;;;2.70;;
37483;SDS011;23337;52.212;9.926;2023-03-13T05:47:20;11.60;;;2.00;;
37483;SDS011;23337;52.212;9.926;2023-03-13T05:49:46;6.93;;;2.33;;
37483;SDS011;23337;52.212;9.926;2023-03-13T05:52:12;8.50;;;2.07;;
37483;SDS011;23337;52.212;9.926;2023-03-13T05:54:37;13.90;;;1.90;;
37483;SDS011;23337;52.212;9.926;2023-03-13T05:57:03;5.90;;;2.20;;
37483;SDS011;23337;52.212;9.926;2023-03-13T05:59:29;10.60;;;1.97;;
37483;SDS011;23337;52.212;9.926;2023-03-13T06:01:55;8.83;;;2.07;;
37483;SDS011;23337;52.212;9.926;2023-03-13T06:04:21;9.20;;;2.10;;
37483;SDS011;23337;52.212;9.926;2023-03-13T06:06:47;6.67;;;1.90;;
37483;SDS011;23337;52.212;9.926;2023-03-13T06:09:13;8.00;;;1.90;;
37483;SDS011;23337;52.212;9.926;2023-03-13T06:11:40;4.00;;;1.50;;
37483;SDS011;23337;52.212;9.926;2023-03-13T06:14:06;5.83;;;1.50;;
37483;SDS011;23337;52.212;9.926;2023-03-13T06:16:33;6.57;;;1.70;;
37483;SDS011;23337;52.212;9.926;2023-03-13T06:18:59;6.63;;;1.90;;
37483;SDS011;23337;52.212;9.926;2023-03-13T06:21:26;6.63;;;1.20;;
37483;SDS011;23337;52.212;9.926;2023-03-13T06:23:53;6.80;;;2.50;;
37483;SDS011;23337;52.212;9.926;2023-03-13T06:26:19;3.43;;;1.30;;
37483;SDS011;23337;52.212;9.926;2023-03-13T06:28:45;5.60;;;1.17;;
37483;SDS011;23337;52.212;9.926;2023-03-13T06:31:11;3.20;;;1.57;;
37483;SDS011;23337;52.212;9.926;2023-03-13T06:33:37;5.20;;;1.87;;
37483;SDS011;23337;52.212;9.926;2023-03-13T06:36:03;2.63;;;1.10;;
37483;SDS011;23337;52.212;9.926;2023-03-13T06:38:30;4.10;;;1.57;;
37483;SDS011;23337;52.212;9.926;2023-03-13T06:40:56;6.37;;;1.17;;
37483;SDS011;23337;52.212;9.926;2023-03-13T06:43:22;6.10;;;1.07;;
37483;SDS011;23337;52.212;9.926;2023-03-13T06:45:47;3.70;;;1.00;;
37483;SDS011;23337;52.212;9.926;2023-03-13T06:48:13;3.97;;;1.03;;
37483;SDS011;23337;52.212;9.926;2023-03-13T06:50:40;6.33;;;1.50;;
37483;SDS011;23337;52.212;9.926;2023-03-13T06:53:06;2.97;;;1.80;;
37483;SDS011;23337;52.212;9.926;2023-03-13T06:55:32;2.97;;;1.00;;
37483;SDS011;23337;52.212;9.926;2023-03-13T06:57:58;2.27;;;1.03;;
37483;SDS011;23337;52.212;9.926;2023-03-13T07:00:24;1.83;;;0.80;;
37483;SDS011;23337;52.212;9.926;2023-03-13T07:02:50;4.63;;;0.83;;
37483;SDS011;23337;52.212;9.926;2023-03-13T07:05:16;2.53;;;1.10;;
37483;SDS011;23337;52.212;9.926;2023-03-13T07:07:42;2.20;;;0.90;;
37483;SDS011;23337;52.212;9.926;2023-03-13T07:10:08;3.13;;;1.00;;
37483;SDS011;23337;52.212;9.926;2023-03-13T07:12:35;3.30;;;0.80;;
37483;SDS011;23337;52.212;9.926;2023-03-13T07:15:01;2.43;;;1.00;;
37483;SDS011;23337;52.212;9.926;2023-03-13T07:17:27;3.17;;;1.40;;
37483;SDS011;23337;52.212;9.926;2023-03-13T07:19:53;3.03;;;0.73;;
37483;SDS011;23337;52.212;9.926;2023-03-13T07:22:19;1.70;;;0.80;;
37483;SDS011;23337;52.212;9.926;2023-03-13T07:24:45;3.20;;;1.30;;
37483;SDS011;23337;52.212;9.926;2023-03-13T07:27:11;3.50;;;1.10;;
37483;SDS011;23337;52.212;9.926;2023-03-13T07:29:37;3.60;;;1.00;;
37483;SDS011;23337;52.212;9.926;2023-03-13T07:32:03;2.40;;;1.10;;
37483;SDS011;23337;52.212;9.926;2023-03-13T07:34:29;1.53;;;0.90;;
37483;SDS011;23337;52.212;9.926;2023-03-13T07:36:55;2.53;;;0.87;;
37483;SDS011;23337;52.212;9.926;2023-03-13T07:39:21;2.27;;;0.80;;
37483;SDS011;23337;52.212;9.926;2023-03-13T07:41:47;1.60;;;0.80;;
37483;SDS011;23337;52.212;9.926;2023-03-13T07:44:13;1.50;;;0.60;;
37483;SDS011;23337;52.212;9.926;2023-03-13T07:46:39;1.43;;;0.53;;
37483;SDS011;23337;52.212;9.926;2023-03-13T07:49:05;2.40;;;0.57;;
37483;SDS011;23337;52.212;9.926;2023-03-13T07:51:31;3.03;;;0.73;;
37483;SDS011;23337;52.212;9.926;2023-03-13T07:53:57;2.90;;;0.80;;
37483;SDS011;23337;52.212;9.926;2023-03-13T07:56:23;1.07;;;0.70;;
37483;SDS011;23337;52.212;9.926;2023-03-13T07:58:49;2.00;;;0.90;;
37483;SDS011;23337;52.212;9.926;2023-03-13T08:01:16;1.07;;;0.63;;
37483;SDS011;23337;52.212;9.926;2023-03-13T08:03:43;1.23;;;0.63;;
37483;SDS011;23337;52.212;9.926;2023-03-13T08:06:10;2.97;;;0.90;;
37483;SDS011;23337;52.212;9.926;2023-03-13T08:08:36;1.73;;;0.70;;
37483;SDS011;23337;52.212;9.926;2023-03-13T08:11:04;1.20;;;0.83;;
37483;SDS011;23337;52.212;9.926;2023-03-13T08:13:31;2.40;;;0.63;;
37483;SDS011;23337;52.212;9.926;2023-03-13T08:16:00;3.03;;;1.03;;
37483;SDS011;23337;52.212;9.926;2023-03-13T08:18:26;1.87;;;0.77;;
37483;SDS011;23337;52.212;9.926;2023-03-13T08:20:52;1.00;;;0.73;;
37483;SDS011;23337;52.212;9.926;2023-03-13T08:23:18;3.90;;;0.90;;
37483;SDS011;23337;52.212;9.926;2023-03-13T08:25:44;1.60;;;0.73;;
37483;SDS011;23337;52.212;9.926;2023-03-13T08:28:10;1.57;;;0.70;;
37483;SDS011;23337;52.212;9.926;2023-03-13T08:30:36;1.37;;;0.60;;
37483;SDS011;23337;52.212;9.926;2023-03-13T08:33:02;2.23;;;0.70;;
37483;SDS011;23337;52.212;9.926;2023-03-13T08:35:28;1.50;;;0.90;;
37483;SDS011;23337;52.212;9.926;2023-03-13T08:37:54;3.13;;;0.90;;
37483;SDS011;23337;52.212;9.926;2023-03-13T08:40:20;1.30;;;0.90;;
37483;SDS011;23337;52.212;9.926;2023-03-13T08:42:46;2.67;;;0.80;;
37483;SDS011;23337;52.212;9.926;2023-03-13T08:45:12;2.93;;;1.00;;
37483;SDS011;23337;52.212;9.926;2023-03-13T08:47:38;2.57;;;0.93;;
37483;SDS011;23337;52.212;9.926;2023-03-13T08:50:04;2.47;;;0.80;;
37483;SDS011;23337;52.212;9.926;2023-03-13T08:52:30;2.87;;;1.27;;
37483;SDS011;23337;52.212;9.926;2023-03-13T08:54:56;1.13;;;0.57;;
37483;SDS011;23337;52.212;9.926;2023-03-13T08:57:22;2.27;;;1.20;;
37483;SDS011;23337;52.212;9.926;2023-03-13T08:59:48;1.97;;;0.73;;
37483;SDS011;23337;52.212;9.926;2023-03-13T09:02:15;2.87;;;1.00;;
37483;SDS011;23337;52.212;9.926;2023-03-13T09:04:44;3.33;;;1.40;;
37483;SDS011;23337;52.212;9.926;2023-03-13T09:07:10;1.80;;;0.90;;
37483;SDS011;23337;52.212;9.926;2023-03-13T09:09:36;1.70;;;0.80;;
37483;SDS011;23337;52.212;9.926;2023-03-13T09:12:02;2.57;;;0.90;;
37483;SDS011;23337;52.212;9.926;2023-03-13T09:14:28;2.43;;;1.00;;
37483;SDS011;23337;52.212;9.926;2023-03-13T09:16:54;2.70;;;0.90;;
37483;SDS011;23337;52.212;9.926;2023-03-13T09:19:21;0.90;;;0.87;;
37483;SDS011;23337;52.212;9.926;2023-03-13T09:21:47;2.97;;;0.90;;
37483;SDS011;23337;52.212;9.926;2023-03-13T09:24:13;3.70;;;0.80;;
37483;SDS011;23337;52.212;9.926;2023-03-13T09:26:39;1.43;;;0.73;;
37483;SDS011;23337;52.212;9.926;2023-03-13T09:29:06;2.03;;;0.73;;
37483;SDS011;23337;52.212;9.926;2023-03-13T09:31:32;1.80;;;1.00;;
37483;SDS011;23337;52.212;9.926;2023-03-13T09:33:58;1.37;;;1.07;;
37483;SDS011;23337;52.212;9.926;2023-03-13T09:36:25;1.90;;;0.70;;
37483;SDS011;23337;52.212;9.926;2023-03-13T09:38:52;1.90;;;1.00;;
37483;SDS011;23337;52.212;9.926;2023-03-13T09:41:20;3.30;;;0.70;;
37483;SDS011;23337;52.212;9.926;2023-03-13T09:43:49;1.40;;;1.30;;
37483;SDS011;23337;52.212;9.926;2023-03-13T09:46:29;1.37;;;1.00;;
37483;SDS011;23337;52.212;9.926;2023-03-13T09:48:57;1.30;;;0.80;;
37483;SDS011;23337;52.212;9.926;2023-03-13T09:51:28;0.60;;;0.60;;
37483;SDS011;23337;52.212;9.926;2023-03-13T09:54:00;1.03;;;0.67;;
37483;SDS011;23337;52.212;9.926;2023-03-13T09:56:45;1.00;;;0.87;;
37483;SDS011;23337;52.212;9.926;2023-03-13T09:59:14;1.20;;;0.90;;
37483;SDS011;23337;52.212;9.926;2023-03-13T10:01:42;1.17;;;0.90;;
37483;SDS011;23337;52.212;9.926;2023-03-13T10:04:23;2.33;;;0.83;;
37483;SDS011;23337;52.212;9.926;2023-03-13T10:06:52;2.20;;;0.90;;
37483;SDS011;23337;52.212;9.926;2023-03-13T10:09:19;2.47;;;0.80;;
37483;SDS011;23337;52.212;9.926;2023-03-13T10:14:28;2.87;;;0.80;;
37483;SDS011;23337;52.212;9.926;2023-03-13T10:16:58;2.57;;;1.07;;
37483;SDS011;23337;52.212;9.926;2023-03-13T10:19:30;1.90;;;1.20;;
37483;SDS011;23337;52.212;9.926;2023-03-13T10:21:56;3.77;;;1.43;;
37483;SDS011;23337;52.212;9.926;2023-03-13T10:24:33;1.30;;;1.10;;
37483;SDS011;23337;52.212;9.926;2023-03-13T10:27:01;1.07;;;0.80;;
37483;SDS011;23337;52.212;9.926;2023-03-13T10:29:27;2.07;;;1.10;;
37483;SDS011;23337;52.212;9.926;2023-03-13T10:34:20;3.53;;;1.57;;
37483;SDS011;23337;52.212;9.926;2023-03-13T10:36:48;3.63;;;1.07;;
37483;SDS011;23337;52.212;9.926;2023-03-13T10:39:15;1.53;;;0.80;;
37483;SDS011;23337;52.212;9.926;2023-03-13T10:41:41;1.97;;;1.10;;
37483;SDS011;23337;52.212;9.926;2023-03-13T10:44:15;0.87;;;0.70;;
37483;SDS011;23337;52.212;9.926;2023-03-13T10:46:42;1.10;;;0.90;;
37483;SDS011;23337;52.212;9.926;2023-03-13T10:49:14;1.20;;;1.00;;
37483;SDS011;23337;52.212;9.926;2023-03-13T10:51:44;1.50;;;1.30;;
37483;SDS011;23337;52.212;9.926;2023-03-13T10:56:47;2.63;;;0.93;;
37483;SDS011;23337;52.212;9.926;2023-03-13T10:59:32;2.43;;;1.20;;
37483;SDS011;23337;52.212;9.926;2023-03-13T11:01:59;2.00;;;1.20;;
37483;SDS011;23337;52.212;9.926;2023-03-13T11:04:29;3.13;;;0.90;;
37483;SDS011;23337;52.212;9.926;2023-03-13T11:07:03;1.60;;;1.10;;
37483;SDS011;23337;52.212;9.926;2023-03-13T11:09:29;4.67;;;1.50;;
37483;SDS011;23337;52.212;9.926;2023-03-13T11:12:02;2.30;;;0.87;;
37483;SDS011;23337;52.212;9.926;2023-03-13T11:14:28;1.87;;;1.20;;
37483;SDS011;23337;52.212;9.926;2023-03-13T11:16:57;2.10;;;1.37;;
37483;SDS011;23337;52.212;9.926;2023-03-13T11:19:29;2.30;;;0.93;;
37483;SDS011;23337;52.212;9.926;2023-03-13T11:27:07;3.00;;;1.30;;
37483;SDS011;23337;52.212;9.926;2023-03-13T11:29:41;1.87;;;1.00;;
37483;SDS011;23337;52.212;9.926;2023-03-13T11:32:13;1.57;;;0.87;;
37483;SDS011;23337;52.212;9.926;2023-03-13T11:34:51;1.80;;;1.03;;
37483;SDS011;23337;52.212;9.926;2023-03-13T11:37:18;1.40;;;1.30;;
37483;SDS011;23337;52.212;9.926;2023-03-13T11:45:02;1.67;;;0.80;;
37483;SDS011;23337;52.212;9.926;2023-03-13T11:50:14;1.17;;;0.90;;
37483;SDS011;23337;52.212;9.926;2023-03-13T11:52:55;1.23;;;0.90;;
37483;SDS011;23337;52.212;9.926;2023-03-13T11:55:37;2.13;;;1.23;;
37483;SDS011;23337;52.212;9.926;2023-03-13T12:03:00;1.53;;;0.90;;
37483;SDS011;23337;52.212;9.926;2023-03-13T12:05:32;3.13;;;1.10;;
37483;SDS011;23337;52.212;9.926;2023-03-13T12:08:45;1.60;;;1.27;;
37483;SDS011;23337;52.212;9.926;2023-03-13T12:13:38;2.83;;;1.10;;
37483;SDS011;23337;52.212;9.926;2023-03-13T12:16:06;1.50;;;1.00;;
37483;SDS011;23337;52.212;9.926;2023-03-13T12:18:35;1.30;;;1.00;;
37483;SDS011;23337;52.212;9.926;2023-03-13T12:23:58;3.63;;;0.97;;
37483;SDS011;23337;52.212;9.926;2023-03-13T12:26:46;1.33;;;1.00;;
37483;SDS011;23337;52.212;9.926;2023-03-13T12:29:26;1.47;;;1.10;;
37483;SDS011;23337;52.212;9.926;2023-03-13T12:31:58;2.73;;;1.10;;
37483;SDS011;23337;52.212;9.926;2023-03-13T12:37:05;2.37;;;1.07;;
37483;SDS011;23337;52.212;9.926;2023-03-13T12:44:54;1.67;;;1.10;;
37483;SDS011;23337;52.212;9.926;2023-03-13T13:00:37;1.97;;;0.70;;
37483;SDS011;23337;52.212;9.926;2023-03-13T13:05:29;1.90;;;0.87;;
37483;SDS011;23337;52.212;9.926;2023-03-13T13:07:55;1.17;;;0.87;;
37483;SDS011;23337;52.212;9.926;2023-03-13T13:10:24;1.47;;;0.70;;
37483;SDS011;23337;52.212;9.926;2023-03-13T13:15:35;1.37;;;0.50;;
37483;SDS011;23337;52.212;9.926;2023-03-13T13:18:12;1.33;;;0.90;;
37483;SDS011;23337;52.212;9.926;2023-03-13T13:21:17;2.33;;;0.70;;
37483;SDS011;23337;52.212;9.926;2023-03-13T13:23:38;1.60;;;0.80;;
37483;SDS011;23337;52.212;9.926;2023-03-13T13:28:50;3.13;;;1.10;;
37483;SDS011;23337;52.212;9.926;2023-03-13T13:31:43;0.67;;;0.40;;
37483;SDS011;23337;52.212;9.926;2023-03-13T13:37:00;2.00;;;0.60;;
37483;SDS011;23337;52.212;9.926;2023-03-13T13:41:56;1.60;;;0.70;;
37483;SDS011;23337;52.212;9.926;2023-03-13T13:44:23;0.80;;;0.40;;
37483;SDS011;23337;52.212;9.926;2023-03-13T13:46:50;0.60;;;0.50;;
37483;SDS011;23337;52.212;9.926;2023-03-13T13:49:20;1.03;;;0.40;;
37483;SDS011;23337;52.212;9.926;2023-03-13T13:57:07;0.70;;;0.60;;
37483;SDS011;23337;52.212;9.926;2023-03-13T13:59:42;1.00;;;0.60;;
37483;SDS011;23337;52.212;9.926;2023-03-13T14:07:01;1.37;;;1.27;;
37483;SDS011;23337;52.212;9.926;2023-03-13T14:11:53;0.77;;;0.60;;
37483;SDS011;23337;52.212;9.926;2023-03-13T14:14:20;0.60;;;0.60;;
37483;SDS011;23337;52.212;9.926;2023-03-13T14:16:47;2.03;;;0.40;;
37483;SDS011;23337;52.212;9.926;2023-03-13T14:21:46;1.20;;;0.43;;
37483;SDS011;23337;52.212;9.926;2023-03-13T14:24:12;0.60;;;0.60;;
37483;SDS011;23337;52.212;9.926;2023-03-13T14:26:41;0.50;;;0.50;;
37483;SDS011;23337;52.212;9.926;2023-03-13T14:29:14;0.70;;;0.40;;
37483;SDS011;23337;52.212;9.926;2023-03-13T14:31:40;0.53;;;0.47;;
37483;SDS011;23337;52.212;9.926;2023-03-13T14:34:07;0.73;;;0.50;;
37483;SDS011;23337;52.212;9.926;2023-03-13T14:42:00;1.20;;;0.40;;
37483;SDS011;23337;52.212;9.926;2023-03-13T14:44:27;2.90;;;0.40;;
37483;SDS011;23337;52.212;9.926;2023-03-13T14:46:56;1.23;;;0.70;;
37483;SDS011;23337;52.212;9.926;2023-03-13T14:49:23;0.93;;;0.53;;
37483;SDS011;23337;52.212;9.926;2023-03-13T14:51:57;0.77;;;0.37;;
37483;SDS011;23337;52.212;9.926;2023-03-13T14:54:24;0.73;;;0.50;;
37483;SDS011;23337;52.212;9.926;2023-03-13T14:57:00;0.53;;;0.40;;
37483;SDS011;23337;52.212;9.926;2023-03-13T14:59:27;0.30;;;0.27;;
37483;SDS011;23337;52.212;9.926;2023-03-13T15:01:57;0.67;;;0.40;;
37483;SDS011;23337;52.212;9.926;2023-03-13T15:07:08;0.60;;;0.40;;
37483;SDS011;23337;52.212;9.926;2023-03-13T15:09:34;1.70;;;0.30;;
37483;SDS011;23337;52.212;9.926;2023-03-13T15:12:11;0.40;;;0.40;;
37483;SDS011;23337;52.212;9.926;2023-03-13T15:14:39;0.63;;;0.47;;
37483;SDS011;23337;52.212;9.926;2023-03-13T15:17:24;1.33;;;0.40;;
37483;SDS011;23337;52.212;9.926;2023-03-13T15:19:54;0.30;;;0.30;;
37483;SDS011;23337;52.212;9.926;2023-03-13T15:22:24;1.00;;;0.40;;
37483;SDS011;23337;52.212;9.926;2023-03-13T15:24:51;0.57;;;0.40;;
37483;SDS011;23337;52.212;9.926;2023-03-13T15:27:18;1.30;;;0.43;;
37483;SDS011;23337;52.212;9.926;2023-03-13T15:29:45;0.50;;;0.40;;
37483;SDS011;23337;52.212;9.926;2023-03-13T15:32:21;0.30;;;0.30;;
37483;SDS011;23337;52.212;9.926;2023-03-13T15:34:48;0.20;;;0.20;;
37483;SDS011;23337;52.212;9.926;2023-03-13T15:37:14;0.53;;;0.30;;
37483;SDS011;23337;52.212;9.926;2023-03-13T15:39:40;0.30;;;0.30;;
37483;SDS011;23337;52.212;9.926;2023-03-13T15:42:06;0.50;;;0.33;;
37483;SDS011;23337;52.212;9.926;2023-03-13T15:44:32;0.57;;;0.40;;
37483;SDS011;23337;52.212;9.926;2023-03-13T15:46:58;1.00;;;0.40;;
37483;SDS011;23337;52.212;9.926;2023-03-13T15:49:24;1.37;;;0.40;;
37483;SDS011;23337;52.212;9.926;2023-03-13T15:51:50;2.30;;;0.30;;
37483;SDS011;23337;52.212;9.926;2023-03-13T15:54:17;0.63;;;0.50;;
37483;SDS011;23337;52.212;9.926;2023-03-13T15:56:43;0.70;;;0.40;;
37483;SDS011;23337;52.212;9.926;2023-03-13T15:59:09;1.40;;;0.40;;
37483;SDS011;23337;52.212;9.926;2023-03-13T16:01:36;0.63;;;0.40;;
37483;SDS011;23337;52.212;9.926;2023-03-13T16:04:02;1.30;;;0.40;;
37483;SDS011;23337;52.212;9.926;2023-03-13T16:06:28;0.63;;;0.33;;
37483;SDS011;23337;52.212;9.926;2023-03-13T16:08:58;0.40;;;0.40;;
37483;SDS011;23337;52.212;9.926;2023-03-13T16:11:24;1.63;;;0.77;;
37483;SDS011;23337;52.212;9.926;2023-03-13T16:13:51;0.77;;;0.40;;
37483;SDS011;23337;52.212;9.926;2023-03-13T16:16:24;0.93;;;0.63;;
37483;SDS011;23337;52.212;9.926;2023-03-13T16:18:52;0.50;;;0.30;;
37483;SDS011;23337;52.212;9.926;2023-03-13T16:21:19;0.83;;;0.73;;
37483;SDS011;23337;52.212;9.926;2023-03-13T16:23:45;0.50;;;0.30;;
37483;SDS011;23337;52.212;9.926;2023-03-13T16:26:15;0.27;;;0.23;;